Time;durP1;ratioP1;P1;durP2;ratioP2;P2;SDS_P1;SDS_P2;PMS_P1;PMS_P2;Temp;Humidity;BMP_temperature;BMP_pressure;BME280_temperature;BME280_humidity;BME280_pressure;Samples;Min_cycle;Max_cycle;Signal;HPM_P1;HPM_P2
2024/02/16 00:00:11;;;;;;;7.00;3.53;;;13.30;45.80;;;;;;5055268;28;20385;-77
2024/02/16 00:02:37;;;;;;;8.13;3.07;;;13.40;45.20;;;;;;5055311;28;20401;-78
2024/02/16 00:05:05;;;;;;;4.82;3.10;;;13.30;45.30;;;;;;5056328;28;20389;-77
2024/02/16 00:07:30;;;;;;;8.35;3.40;;;13.30;45.20;;;;;;5055121;28;20968;-77
2024/02/16 00:09:56;;;;;;;5.53;3.20;;;13.40;45.40;;;;;;5071442;28;20413;-76
2024/02/16 00:12:22;;;;;;;12.10;3.53;;;13.30;45.40;;;;;;5055494;28;20445;-77
2024/02/16 00:14:47;;;;;;;5.37;3.13;;;13.40;44.90;;;;;;5055446;28;20381;-77
2024/02/16 00:17:13;;;;;;;6.50;3.10;;;13.40;45.00;;;;;;5055355;28;20387;-77
2024/02/16 00:19:39;;;;;;;3.77;2.70;;;13.40;44.60;;;;;;5055330;28;20385;-76
2024/02/16 00:22:07;;;;;;;8.27;3.08;;;13.40;44.40;;;;;;5057382;28;20443;-76
2024/02/16 00:24:33;;;;;;;4.32;2.90;;;13.40;44.50;;;;;;5057431;28;20416;-77
2024/02/16 00:26:59;;;;;;;11.98;3.40;;;13.40;44.40;;;;;;5065115;28;20389;-75
2024/02/16 00:29:24;;;;;;;5.65;2.53;;;13.40;44.30;;;;;;5062016;28;20389;-77
2024/02/16 00:31:50;;;;;;;4.50;2.67;;;13.50;44.00;;;;;;5059708;28;20435;-76
2024/02/16 00:34:16;;;;;;;5.43;2.70;;;13.50;43.80;;;;;;5063201;28;20382;-78
2024/02/16 00:36:41;;;;;;;6.10;3.10;;;13.50;43.90;;;;;;5066419;28;20902;-76
2024/02/16 00:39:07;;;;;;;9.32;3.50;;;13.50;44.10;;;;;;5066647;28;20381;-77
2024/02/16 00:41:32;;;;;;;4.68;2.70;;;13.50;44.40;;;;;;5065468;28;20389;-77
2024/02/16 00:43:58;;;;;;;6.77;3.30;;;13.50;43.70;;;;;;5071263;28;20373;-77
2024/02/16 00:46:24;;;;;;;6.97;3.10;;;13.50;44.10;;;;;;5062660;28;20397;-77
2024/02/16 00:48:51;;;;;;;7.80;3.35;;;13.50;44.00;;;;;;5064357;28;20393;-76
2024/02/16 00:51:16;;;;;;;3.90;2.60;;;13.50;43.80;;;;;;5073572;28;20401;-76
2024/02/16 00:53:42;;;;;;;7.75;2.97;;;13.60;43.60;;;;;;5074779;28;20404;-77
2024/02/16 00:56:08;;;;;;;5.20;2.40;;;13.50;43.80;;;;;;5073440;28;20390;-77
2024/02/16 00:58:34;;;;;;;8.35;3.30;;;13.60;43.40;;;;;;5057014;28;20548;-77
2024/02/16 01:00:59;;;;;;;7.40;3.22;;;13.60;43.30;;;;;;5056508;28;20409;-77
2024/02/16 01:03:26;;;;;;;6.78;3.60;;;13.60;43.90;;;;;;5054804;28;20398;-77
2024/02/16 01:05:52;;;;;;;5.57;2.50;;;13.50;43.60;;;;;;5055686;28;20421;-77
2024/02/16 01:08:18;;;;;;;4.07;2.42;;;13.50;43.60;;;;;;5065030;28;20385;-77
2024/02/16 01:10:43;;;;;;;5.40;2.90;;;13.50;43.90;;;;;;5057502;28;20393;-78
2024/02/16 01:13:10;;;;;;;6.75;2.83;;;13.50;44.20;;;;;;5058391;28;20416;-77
2024/02/16 01:15:36;;;;;;;7.80;2.60;;;13.60;44.50;;;;;;5056717;28;20386;-77
2024/02/16 01:18:03;;;;;;;7.40;3.10;;;13.60;43.20;;;;;;5058080;28;20381;-77
2024/02/16 01:20:30;;;;;;;5.85;2.72;;;13.60;43.60;;;;;;5056042;28;20385;-77
2024/02/16 01:22:56;;;;;;;6.10;2.97;;;13.50;43.90;;;;;;5055994;28;20385;-77
2024/02/16 01:25:22;;;;;;;7.40;3.20;;;13.60;43.30;;;;;;5057614;28;20385;-76
2024/02/16 01:27:48;;;;;;;5.90;2.50;;;13.60;43.50;;;;;;5060269;28;20740;-77
2024/02/16 01:30:15;;;;;;;6.00;2.97;;;13.60;43.20;;;;;;5053341;28;20472;-78
2024/02/16 01:32:41;;;;;;;8.88;3.20;;;13.60;43.40;;;;;;5053679;28;20903;-77
2024/02/16 01:35:07;;;;;;;5.40;3.10;;;13.60;43.30;;;;;;5053602;28;20465;-77
2024/02/16 01:37:33;;;;;;;5.35;3.20;;;13.60;43.40;;;;;;5053355;28;20396;-77
2024/02/16 01:39:58;;;;;;;4.32;2.70;;;13.60;43.80;;;;;;5054187;28;20385;-77
2024/02/16 01:42:24;;;;;;;5.50;3.20;;;13.60;43.10;;;;;;5055370;28;20385;-76
2024/02/16 01:44:50;;;;;;;5.53;2.40;;;13.70;42.70;;;;;;5055515;28;20447;-76
2024/02/16 01:47:18;;;;;;;6.60;3.40;;;13.70;42.60;;;;;;5061348;28;20438;-78
2024/02/16 01:49:44;;;;;;;11.00;2.88;;;13.70;43.30;;;;;;5068050;28;20407;-75
2024/02/16 01:52:25;;;;;;;6.47;2.70;;;13.60;43.60;;;;;;5060594;28;20405;-77
2024/02/16 01:54:51;;;;;;;5.97;2.60;;;13.50;43.90;;;;;;5053012;28;20389;-76
2024/02/16 01:57:16;;;;;;;8.10;3.00;;;13.50;43.60;;;;;;5053646;28;20408;-76
2024/02/16 01:59:42;;;;;;;6.97;2.60;;;13.50;43.70;;;;;;5054305;28;20441;-76
2024/02/16 02:02:08;;;;;;;7.20;3.17;;;13.60;43.40;;;;;;5054879;28;20425;-76
2024/02/16 02:04:34;;;;;;;5.60;2.80;;;13.60;43.60;;;;;;5055844;28;20401;-77
2024/02/16 02:06:59;;;;;;;7.13;3.00;;;13.60;43.30;;;;;;5052960;28;20389;-76
2024/02/16 02:09:25;;;;;;;5.60;3.10;;;13.60;43.00;;;;;;5052318;28;20389;-77
2024/02/16 02:11:51;;;;;;;4.00;2.53;;;13.60;42.80;;;;;;5052730;28;20397;-75
2024/02/16 02:14:17;;;;;;;7.05;2.90;;;13.70;43.20;;;;;;5052818;28;20977;-78
2024/02/16 02:16:42;;;;;;;6.63;3.00;;;13.70;43.30;;;;;;5053200;28;20409;-77
2024/02/16 02:19:08;;;;;;;5.38;3.00;;;13.70;43.10;;;;;;5052483;28;20385;-76
2024/02/16 02:21:34;;;;;;;6.47;2.90;;;13.70;42.90;;;;;;5054302;28;20914;-77
2024/02/16 02:23:59;;;;;;;4.20;2.10;;;13.80;42.90;;;;;;5054079;28;20774;-76
2024/02/16 02:26:25;;;;;;;6.43;2.47;;;13.80;42.80;;;;;;5055841;28;20386;-78
2024/02/16 02:28:51;;;;;;;6.70;2.70;;;13.80;43.50;;;;;;5054890;28;20481;-77
2024/02/16 02:31:16;;;;;;;3.90;2.00;;;13.70;44.10;;;;;;5062745;28;20899;-77
2024/02/16 02:33:42;;;;;;;4.30;2.42;;;13.70;44.40;;;;;;5064311;28;20416;-78
2024/02/16 02:36:07;;;;;;;5.90;2.90;;;13.70;45.00;;;;;;5062085;28;20392;-76
2024/02/16 02:38:33;;;;;;;4.90;2.93;;;13.60;45.50;;;;;;5061607;28;20387;-78
2024/02/16 02:40:59;;;;;;;4.45;2.40;;;13.50;46.20;;;;;;5063601;28;20447;-77
2024/02/16 02:43:27;;;;;;;5.82;2.90;;;13.40;46.50;;;;;;5057723;28;20417;-76
2024/02/16 02:45:52;;;;;;;6.25;2.30;;;13.40;46.90;;;;;;5054410;28;20393;-77
2024/02/16 02:48:18;;;;;;;4.93;2.83;;;13.30;47.30;;;;;;5055362;28;20411;-76
2024/02/16 02:50:43;;;;;;;8.33;3.27;;;13.20;47.60;;;;;;5059354;28;20449;-77
2024/02/16 02:53:09;;;;;;;5.10;2.87;;;13.20;48.00;;;;;;5061181;28;20413;-78
2024/02/16 02:55:34;;;;;;;4.57;2.80;;;13.20;47.90;;;;;;5066501;28;20400;-77
2024/02/16 02:58:00;;;;;;;5.28;3.33;;;13.20;48.40;;;;;;5067028;28;20382;-78
2024/02/16 03:00:25;;;;;;;4.17;2.70;;;13.20;48.70;;;;;;5065820;28;20393;-78
2024/02/16 03:02:51;;;;;;;5.00;2.90;;;13.20;48.60;;;;;;5077866;28;20397;-78
2024/02/16 03:05:19;;;;;;;6.70;2.90;;;13.30;48.60;;;;;;5065673;28;20389;-77
2024/02/16 03:07:44;;;;;;;5.90;3.00;;;13.30;48.20;;;;;;5061925;28;20447;-78
2024/02/16 03:10:10;;;;;;;6.55;2.95;;;13.30;48.00;;;;;;5077067;28;20386;-78
2024/02/16 03:12:35;;;;;;;5.82;2.53;;;13.30;47.80;;;;;;5059016;28;20403;-77
2024/02/16 03:15:01;;;;;;;7.73;3.13;;;13.30;48.00;;;;;;5061777;28;20396;-77
2024/02/16 03:17:27;;;;;;;8.20;3.53;;;13.20;48.40;;;;;;5065053;28;20404;-78
2024/02/16 03:19:52;;;;;;;4.38;2.55;;;13.10;48.80;;;;;;5068268;28;20386;-77
2024/02/16 03:22:18;;;;;;;9.93;3.22;;;13.10;48.60;;;;;;5066819;28;20401;-76
2024/02/16 03:24:44;;;;;;;4.93;2.67;;;13.10;48.70;;;;;;5059468;28;20764;-79
2024/02/16 03:27:10;;;;;;;10.23;3.03;;;13.10;48.40;;;;;;5060960;28;20492;-76
2024/02/16 03:29:36;;;;;;;5.00;3.00;;;13.10;48.10;;;;;;5059203;28;20843;-76
2024/02/16 03:32:01;;;;;;;4.27;2.80;;;13.10;48.30;;;;;;5071109;28;20543;-77
2024/02/16 03:34:27;;;;;;;4.95;3.10;;;13.20;48.10;;;;;;5054364;28;20393;-78
2024/02/16 03:36:53;;;;;;;5.57;2.92;;;13.20;47.70;;;;;;5052969;28;20385;-76
2024/02/16 03:39:20;;;;;;;6.93;3.40;;;13.20;48.10;;;;;;5052440;28;20421;-76
2024/02/16 03:41:49;;;;;;;6.10;3.10;;;13.20;47.60;;;;;;5052397;28;20381;-77
2024/02/16 03:44:17;;;;;;;6.70;2.65;;;13.30;47.40;;;;;;5054636;28;20408;-78
2024/02/16 03:46:43;;;;;;;5.43;2.80;;;13.30;47.30;;;;;;5053458;28;20389;-76
2024/02/16 03:49:09;;;;;;;10.48;3.00;;;13.30;47.10;;;;;;5053390;28;20382;-77
2024/02/16 03:51:36;;;;;;;4.47;2.70;;;13.30;47.20;;;;;;5054277;28;20388;-76
2024/02/16 03:54:02;;;;;;;5.45;2.78;;;13.30;47.50;;;;;;5054455;28;20457;-76
2024/02/16 03:56:28;;;;;;;4.65;2.90;;;13.30;47.80;;;;;;5053639;28;20370;-77
2024/02/16 03:58:53;;;;;;;10.37;3.57;;;13.30;47.70;;;;;;5052222;28;20385;-77
2024/02/16 04:01:19;;;;;;;5.13;3.00;;;13.30;47.80;;;;;;5053513;28;20390;-77
2024/02/16 04:03:44;;;;;;;5.20;2.63;;;13.30;47.70;;;;;;5053070;28;20397;-77
2024/02/16 04:06:10;;;;;;;5.63;2.63;;;13.40;47.40;;;;;;5059690;28;20381;-77
2024/02/16 04:08:35;;;;;;;8.77;3.05;;;13.40;47.50;;;;;;5072456;28;20453;-77
2024/02/16 04:11:01;;;;;;;3.63;2.53;;;13.40;47.50;;;;;;5061189;28;20390;-77
2024/02/16 04:13:26;;;;;;;6.57;3.10;;;13.40;47.40;;;;;;5057331;28;20915;-78
2024/02/16 04:15:52;;;;;;;5.07;3.10;;;13.50;47.30;;;;;;5066361;28;20506;-77
2024/02/16 04:18:18;;;;;;;4.40;2.55;;;13.40;47.60;;;;;;5067527;28;20392;-78
2024/02/16 04:20:44;;;;;;;6.80;2.70;;;13.40;47.60;;;;;;5058412;28;20416;-77
2024/02/16 04:23:09;;;;;;;4.60;2.80;;;13.50;47.50;;;;;;5056316;28;20941;-78
2024/02/16 04:25:35;;;;;;;6.68;3.20;;;13.40;47.60;;;;;;5058101;28;20428;-79
2024/02/16 04:28:01;;;;;;;7.40;3.17;;;13.50;47.70;;;;;;5058133;28;20386;-78
2024/02/16 04:30:26;;;;;;;9.88;2.97;;;13.40;47.70;;;;;;5058096;28;20495;-77
2024/02/16 04:32:52;;;;;;;8.60;2.93;;;13.40;47.80;;;;;;5056758;28;20411;-76
2024/02/16 04:35:18;;;;;;;16.60;3.40;;;13.50;47.10;;;;;;5052199;28;20387;-72
2024/02/16 04:37:44;;;;;;;6.03;3.10;;;13.50;47.50;;;;;;5048115;28;20511;-73
2024/02/16 04:40:12;;;;;;;7.63;3.15;;;13.50;47.90;;;;;;5049576;28;20482;-73
2024/02/16 04:42:38;;;;;;;5.78;3.20;;;13.40;48.00;;;;;;5044920;28;20387;-72
2024/02/16 04:45:04;;;;;;;6.03;3.30;;;13.40;48.20;;;;;;5033184;28;20784;-72
2024/02/16 04:47:29;;;;;;;6.43;3.40;;;13.30;48.40;;;;;;5036207;28;20391;-72
2024/02/16 04:49:55;;;;;;;9.10;3.78;;;13.30;48.80;;;;;;5041015;28;20420;-74
2024/02/16 04:52:20;;;;;;;6.07;3.50;;;13.30;48.60;;;;;;5041908;28;20447;-73
2024/02/16 04:54:46;;;;;;;8.82;3.60;;;13.30;48.40;;;;;;5035527;28;20900;-74
2024/02/16 04:57:11;;;;;;;10.37;3.60;;;13.20;48.70;;;;;;5034954;28;20390;-73
2024/02/16 04:59:37;;;;;;;6.37;3.40;;;13.10;49.40;;;;;;5039316;28;20387;-74
2024/02/16 05:02:03;;;;;;;8.05;4.07;;;13.10;49.60;;;;;;5033771;28;20804;-73
2024/02/16 05:04:29;;;;;;;9.03;4.60;;;13.20;50.10;;;;;;5043903;28;20882;-73
2024/02/16 05:06:57;;;;;;;8.37;4.03;;;13.10;50.50;;;;;;5042807;28;20435;-74
2024/02/16 05:09:24;;;;;;;10.25;4.90;;;13.20;50.40;;;;;;5035025;28;20375;-73
2024/02/16 05:11:51;;;;;;;11.23;4.60;;;13.20;50.70;;;;;;5032631;28;20816;-73
2024/02/16 05:14:16;;;;;;;9.82;4.97;;;13.20;50.70;;;;;;5032847;28;20421;-74
2024/02/16 05:16:45;;;;;;;12.50;5.10;;;13.20;51.10;;;;;;5033115;28;20757;-72
2024/02/16 05:19:10;;;;;;;10.98;5.60;;;13.20;51.30;;;;;;5033316;28;20383;-73
2024/02/16 05:21:36;;;;;;;16.00;6.03;;;13.20;51.80;;;;;;5048327;28;20486;-75
2024/02/16 05:24:02;;;;;;;10.95;5.25;;;13.10;52.00;;;;;;5031708;28;20474;-74
2024/02/16 05:26:28;;;;;;;11.02;4.82;;;13.00;52.70;;;;;;5031660;28;20383;-74
2024/02/16 05:28:53;;;;;;;18.27;6.60;;;12.90;53.40;;;;;;5032828;28;20387;-75
2024/02/16 05:31:19;;;;;;;10.20;4.60;;;13.00;53.80;;;;;;5032543;28;20706;-74
2024/02/16 05:33:50;;;;;;;8.68;4.10;;;12.90;54.30;;;;;;5032311;28;20414;-74
2024/02/16 05:36:20;;;;;;;15.82;7.05;;;12.80;54.90;;;;;;5032474;28;20387;-74
2024/02/16 05:38:47;;;;;;;11.23;5.28;;;12.80;56.10;;;;;;5032496;28;20406;-73
2024/02/16 05:41:12;;;;;;;8.88;4.72;;;12.70;56.80;;;;;;5032487;28;20383;-73
2024/02/16 05:43:38;;;;;;;12.03;5.27;;;12.70;57.10;;;;;;5032012;28;20406;-74
2024/02/16 05:46:07;;;;;;;8.37;5.03;;;12.60;58.20;;;;;;5032319;28;20388;-74
2024/02/16 05:48:37;;;;;;;10.13;5.30;;;12.60;58.80;;;;;;5031950;28;20422;-74
2024/02/16 05:51:03;;;;;;;10.67;4.70;;;12.60;58.90;;;;;;5032023;28;20375;-72
2024/02/16 05:53:29;;;;;;;11.52;4.90;;;12.50;59.00;;;;;;5032086;28;20411;-72
2024/02/16 05:55:55;;;;;;;8.40;4.43;;;12.50;59.70;;;;;;5032384;28;20376;-74
2024/02/16 05:58:20;;;;;;;9.80;4.20;;;12.50;59.80;;;;;;5032155;28;20379;-73
2024/02/16 06:00:47;;;;;;;6.82;4.75;;;12.60;58.90;;;;;;5031879;28;20416;-74
2024/02/16 06:03:13;;;;;;;15.75;5.20;;;12.60;59.00;;;;;;5032185;28;20379;-73
2024/02/16 06:05:40;;;;;;;11.30;5.22;;;12.70;58.90;;;;;;5032078;28;20391;-74
2024/02/16 06:08:07;;;;;;;11.57;5.20;;;12.80;58.50;;;;;;5031152;28;20759;-74
2024/02/16 06:10:33;;;;;;;10.02;5.35;;;12.80;57.50;;;;;;5032316;28;20402;-74
2024/02/16 06:12:59;;;;;;;9.82;5.00;;;12.80;57.70;;;;;;5032421;28;20765;-75
2024/02/16 06:15:25;;;;;;;9.60;4.50;;;12.90;57.30;;;;;;5032180;28;20390;-72
2024/02/16 06:17:50;;;;;;;11.77;4.30;;;12.90;57.20;;;;;;5032731;28;20750;-73
2024/02/16 06:20:16;;;;;;;8.05;5.03;;;12.90;57.20;;;;;;5030513;28;20437;-73
2024/02/16 06:22:42;;;;;;;10.10;5.47;;;13.00;56.60;;;;;;5032945;28;20391;-73
2024/02/16 06:25:09;;;;;;;8.95;4.30;;;13.00;56.60;;;;;;5035630;28;20447;-74
2024/02/16 06:27:35;;;;;;;10.93;5.17;;;13.00;56.40;;;;;;5032389;28;20395;-73
2024/02/16 06:30:03;;;;;;;9.48;4.95;;;13.00;56.30;;;;;;5032423;28;20457;-76
2024/02/16 06:32:31;;;;;;;10.32;5.72;;;13.00;56.10;;;;;;5032274;28;20407;-72
2024/02/16 06:34:56;;;;;;;9.13;4.55;;;13.10;56.10;;;;;;5032504;28;20527;-74
2024/02/16 06:37:22;;;;;;;9.38;4.20;;;13.10;55.40;;;;;;5032733;28;20383;-74
2024/02/16 06:39:48;;;;;;;9.23;4.50;;;13.00;55.40;;;;;;5031893;28;20387;-75
2024/02/16 06:42:13;;;;;;;9.50;4.20;;;13.00;55.50;;;;;;5032053;28;20382;-74
2024/02/16 06:44:40;;;;;;;10.93;4.78;;;12.90;55.80;;;;;;5032172;28;20426;-74
2024/02/16 06:47:06;;;;;;;10.43;4.65;;;13.00;55.70;;;;;;5031764;28;21005;-74
2024/02/16 06:49:31;;;;;;;6.50;3.95;;;13.10;55.00;;;;;;5031674;28;20386;-74
2024/02/16 06:51:57;;;;;;;7.50;3.90;;;13.10;54.70;;;;;;5031448;28;20870;-76
2024/02/16 06:54:24;;;;;;;10.70;5.20;;;13.00;54.50;;;;;;5031330;28;20390;-72
2024/02/16 06:56:51;;;;;;;7.78;4.40;;;13.10;54.40;;;;;;5031773;28;20383;-73
2024/02/16 06:59:17;;;;;;;7.13;4.20;;;13.20;53.90;;;;;;5030875;28;20979;-74
2024/02/16 07:01:43;;;;;;;7.25;4.20;;;13.20;54.10;;;;;;5031743;28;20418;-74
2024/02/16 07:04:09;;;;;;;9.35;4.82;;;13.20;53.90;;;;;;5031360;28;20391;-74
2024/02/16 07:06:35;;;;;;;8.52;4.60;;;13.30;53.40;;;;;;5032068;28;20467;-72
2024/02/16 07:09:01;;;;;;;9.85;4.50;;;13.30;53.30;;;;;;5031301;28;20394;-74
2024/02/16 07:11:27;;;;;;;11.35;5.30;;;13.30;52.70;;;;;;5030966;28;20767;-74
2024/02/16 07:13:53;;;;;;;11.50;5.03;;;13.40;52.10;;;;;;5030552;28;20447;-73
2024/02/16 07:16:18;;;;;;;9.05;4.20;;;13.30;52.20;;;;;;5031161;28;20390;-73
2024/02/16 07:18:44;;;;;;;10.88;4.70;;;13.30;52.60;;;;;;5034377;28;20419;-72
2024/02/16 07:21:10;;;;;;;9.43;4.43;;;13.30;52.50;;;;;;5042714;28;20407;-73
2024/02/16 07:23:35;;;;;;;8.77;4.33;;;13.30;52.10;;;;;;5039933;28;20395;-75
2024/02/16 07:26:01;;;;;;;10.70;5.03;;;13.40;51.70;;;;;;5031041;28;20395;-73
2024/02/16 07:28:27;;;;;;;8.70;5.17;;;13.50;51.30;;;;;;5031407;28;20390;-74
2024/02/16 07:30:53;;;;;;;8.07;4.30;;;13.70;50.30;;;;;;5045603;28;20419;-74
2024/02/16 07:33:19;;;;;;;8.47;4.13;;;13.70;50.50;;;;;;5030431;28;20418;-72
2024/02/16 07:35:45;;;;;;;8.13;4.22;;;13.70;49.70;;;;;;5030299;28;20397;-72
2024/02/16 07:38:10;;;;;;;10.57;4.47;;;13.80;49.80;;;;;;5030679;28;20387;-73
2024/02/16 07:40:36;;;;;;;10.57;5.20;;;13.80;49.00;;;;;;5030759;28;20389;-74
2024/02/16 07:43:03;;;;;;;9.47;5.20;;;14.00;48.70;;;;;;5032097;28;20387;-74
2024/02/16 07:45:29;;;;;;;6.00;3.75;;;14.10;47.60;;;;;;5036365;28;20387;-73
2024/02/16 07:47:56;;;;;;;8.23;4.43;;;14.10;47.10;;;;;;5031570;28;20395;-72
2024/02/16 07:50:22;;;;;;;11.13;4.88;;;14.20;46.80;;;;;;5034004;28;20391;-73
2024/02/16 07:52:49;;;;;;;13.45;5.57;;;14.30;46.50;;;;;;5033986;28;20881;-75
2024/02/16 07:55:17;;;;;;;12.23;4.57;;;14.50;45.50;;;;;;5033768;28;20444;-73
2024/02/16 07:57:43;;;;;;;12.85;4.50;;;14.50;45.30;;;;;;5034801;28;20513;-74
2024/02/16 08:00:10;;;;;;;10.52;3.88;;;14.60;44.90;;;;;;5033731;28;20415;-73
2024/02/16 08:02:36;;;;;;;8.50;4.10;;;14.60;44.80;;;;;;5034024;28;20439;-74
2024/02/16 08:05:02;;;;;;;9.88;4.25;;;14.70;44.20;;;;;;5033826;28;20738;-73
2024/02/16 08:07:28;;;;;;;9.90;4.20;;;14.80;43.30;;;;;;5034273;28;20786;-73
2024/02/16 08:09:53;;;;;;;7.63;4.10;;;14.90;43.10;;;;;;5034744;28;20810;-72
2024/02/16 08:12:19;;;;;;;11.57;5.00;;;14.90;43.10;;;;;;5033756;28;20442;-73
2024/02/16 08:14:46;;;;;;;9.40;4.30;;;14.90;42.90;;;;;;5033764;28;20518;-74
2024/02/16 08:17:11;;;;;;;8.05;4.20;;;14.90;43.30;;;;;;5034643;28;20386;-75
2024/02/16 08:19:38;;;;;;;10.82;4.25;;;14.90;43.20;;;;;;5034116;28;20385;-73
2024/02/16 08:22:05;;;;;;;7.90;4.50;;;14.80;43.10;;;;;;5033785;28;20406;-72
2024/02/16 08:24:32;;;;;;;7.88;3.63;;;14.80;43.40;;;;;;5033420;28;20632;-72
2024/02/16 08:26:58;;;;;;;6.55;4.32;;;14.80;43.10;;;;;;5033344;28;20384;-71
2024/02/16 08:29:25;;;;;;;12.25;4.45;;;14.80;43.00;;;;;;5033778;28;20861;-73
2024/02/16 08:31:51;;;;;;;12.50;4.93;;;14.90;43.00;;;;;;5033220;28;20395;-71
2024/02/16 08:34:16;;;;;;;11.05;4.15;;;15.00;42.90;;;;;;5033100;28;20403;-71
2024/02/16 08:36:49;;;;;;;7.70;3.57;;;15.00;42.30;;;;;;5033181;28;20953;-75
2024/02/16 08:39:16;;;;;;;6.93;3.65;;;15.10;41.70;;;;;;5033141;28;20382;-70
2024/02/16 08:41:44;;;;;;;8.23;4.25;;;15.30;41.20;;;;;;5032941;28;20932;-73
2024/02/16 08:44:10;;;;;;;6.70;3.80;;;15.40;40.70;;;;;;5032851;28;20394;-70
2024/02/16 08:46:36;;;;;;;11.15;4.22;;;15.40;40.40;;;;;;5032658;28;20430;-72
2024/02/16 08:49:02;;;;;;;11.43;4.60;;;15.50;40.00;;;;;;5032335;28;20383;-75
2024/02/16 08:51:28;;;;;;;8.05;4.10;;;15.60;40.00;;;;;;5032634;28;20798;-74
2024/02/16 08:53:54;;;;;;;7.13;3.50;;;15.70;39.60;;;;;;5032229;28;20812;-74
2024/02/16 08:56:19;;;;;;;16.48;4.10;;;15.70;39.60;;;;;;5032705;28;20445;-71
2024/02/16 08:58:45;;;;;;;9.83;4.10;;;15.80;38.90;;;;;;5032645;28;20739;-73
2024/02/16 09:01:10;;;;;;;8.23;3.93;;;15.90;38.80;;;;;;5031829;28;20379;-71
2024/02/16 09:03:38;;;;;;;10.95;4.30;;;15.90;38.80;;;;;;5032692;28;20470;-73
2024/02/16 09:06:04;;;;;;;11.57;3.90;;;16.00;38.50;;;;;;5032249;28;20896;-72
2024/02/16 09:08:33;;;;;;;8.07;3.88;;;16.10;38.50;;;;;;5032710;28;20409;-72
2024/02/16 09:10:59;;;;;;;7.00;3.50;;;16.10;38.10;;;;;;5032059;28;20897;-72
2024/02/16 09:13:25;;;;;;;8.40;4.68;;;16.10;38.50;;;;;;5032507;28;20421;-73
2024/02/16 09:15:51;;;;;;;11.90;4.10;;;16.10;38.20;;;;;;5032664;28;20379;-73
2024/02/16 09:18:17;;;;;;;6.75;3.78;;;16.00;38.50;;;;;;5032281;28;20387;-71
2024/02/16 09:20:43;;;;;;;11.40;3.95;;;16.00;38.70;;;;;;5031751;28;20401;-72
2024/02/16 09:23:09;;;;;;;8.40;4.17;;;16.00;38.80;;;;;;5031967;28;20394;-73
2024/02/16 09:25:35;;;;;;;10.95;5.68;;;16.00;38.80;;;;;;5031348;28;20410;-71
2024/02/16 09:28:00;;;;;;;10.02;4.13;;;16.10;38.40;;;;;;5031752;28;20494;-73
2024/02/16 09:30:26;;;;;;;11.33;4.50;;;16.20;38.20;;;;;;5031624;28;20753;-70
2024/02/16 09:32:52;;;;;;;11.32;4.80;;;16.30;38.20;;;;;;5031835;28;20751;-71
2024/02/16 09:35:17;;;;;;;9.15;4.00;;;16.40;37.80;;;;;;5031589;28;20862;-71
2024/02/16 09:37:43;;;;;;;10.23;4.50;;;16.40;37.80;;;;;;5031638;28;20444;-71
2024/02/16 09:40:12;;;;;;;9.80;4.50;;;16.50;37.20;;;;;;5031724;28;20383;-72
2024/02/16 09:42:38;;;;;;;8.77;3.78;;;16.60;36.90;;;;;;5031696;28;20866;-72
2024/02/16 09:45:06;;;;;;;7.95;3.72;;;16.70;36.70;;;;;;5031353;28;20428;-73
2024/02/16 09:47:34;;;;;;;11.53;4.00;;;16.70;36.70;;;;;;5031624;28;20398;-73
2024/02/16 09:50:00;;;;;;;15.32;4.18;;;16.70;36.90;;;;;;5031361;28;20411;-74
2024/02/16 09:52:26;;;;;;;10.30;3.95;;;16.70;36.70;;;;;;5031786;28;20940;-72
2024/02/16 09:54:52;;;;;;;11.73;3.97;;;16.80;36.20;;;;;;5031760;28;20471;-72
2024/02/16 09:57:18;;;;;;;11.05;4.40;;;16.90;36.10;;;;;;5031576;28;20441;-71
2024/02/16 09:59:44;;;;;;;9.95;4.75;;;16.90;36.00;;;;;;5031820;28;20401;-71
2024/02/16 10:02:10;;;;;;;11.00;4.30;;;17.00;35.70;;;;;;5031986;28;20470;-72
2024/02/16 10:04:36;;;;;;;10.77;4.30;;;16.90;35.80;;;;;;5031475;28;20555;-74
2024/02/16 10:07:01;;;;;;;6.90;3.90;;;16.80;36.60;;;;;;5031349;28;20908;-72
2024/02/16 10:09:32;;;;;;;12.37;3.87;;;16.60;36.80;;;;;;5030615;28;20399;-71
2024/02/16 10:11:58;;;;;;;7.30;4.10;;;16.60;37.10;;;;;;5030346;28;20371;-73
2024/02/16 10:14:25;;;;;;;10.63;3.90;;;16.60;36.80;;;;;;5030802;28;20433;-75
2024/02/16 10:17:06;;;;;;;13.02;4.60;;;16.80;36.60;;;;;;5031170;28;20408;-70
2024/02/16 10:19:39;;;;;;;6.13;4.00;;;16.70;36.70;;;;;;5030888;28;20387;-72
2024/02/16 10:22:12;;;;;;;9.35;4.32;;;16.70;36.50;;;;;;5029485;28;20521;-70
2024/02/16 10:24:38;;;;;;;10.98;4.82;;;16.90;36.60;;;;;;5030497;28;20409;-72
2024/02/16 10:27:06;;;;;;;9.90;4.32;;;16.90;36.30;;;;;;5032160;28;20881;-70
2024/02/16 10:29:34;;;;;;;8.43;4.27;;;17.00;36.10;;;;;;5031348;28;20387;-73
2024/02/16 10:31:59;;;;;;;8.32;4.25;;;17.00;36.10;;;;;;5031195;28;20387;-72
2024/02/16 10:34:27;;;;;;;7.35;3.90;;;16.90;36.30;;;;;;5032881;28;20466;-72
2024/02/16 10:36:54;;;;;;;12.45;5.22;;;16.70;36.80;;;;;;5032297;28;20874;-72
2024/02/16 10:39:20;;;;;;;9.97;3.93;;;16.60;37.30;;;;;;5031889;28;20489;-73
2024/02/16 10:41:48;;;;;;;10.82;3.90;;;16.50;37.40;;;;;;5032028;28;20695;-72
2024/02/16 10:44:14;;;;;;;13.68;4.90;;;16.50;37.90;;;;;;5031150;28;20390;-72
2024/02/16 10:46:40;;;;;;;10.18;4.22;;;16.50;38.30;;;;;;5031095;28;20386;-70
2024/02/16 10:49:05;;;;;;;12.77;4.35;;;16.40;38.30;;;;;;5030950;28;20948;-72
2024/02/16 10:51:43;;;;;;;12.27;4.40;;;16.40;38.60;;;;;;5031111;28;20407;-70
2024/02/16 10:54:12;;;;;;;10.65;5.07;;;16.40;38.80;;;;;;5031397;28;20474;-72
2024/02/16 10:56:39;;;;;;;12.45;4.97;;;16.40;39.00;;;;;;5031075;28;20379;-70
2024/02/16 10:59:09;;;;;;;11.82;4.40;;;16.40;39.30;;;;;;5031195;28;20394;-72
2024/02/16 11:01:42;;;;;;;11.93;4.60;;;16.30;39.30;;;;;;5030994;28;20376;-72
2024/02/16 11:04:11;;;;;;;9.55;4.50;;;16.30;39.70;;;;;;5031756;28;20788;-71
2024/02/16 11:06:48;;;;;;;10.98;4.70;;;16.30;39.80;;;;;;5031007;28;20930;-73
2024/02/16 11:09:35;;;;;;;10.75;4.10;;;16.30;39.90;;;;;;5030654;28;20756;-72
2024/02/16 11:12:02;;;;;;;11.85;4.30;;;16.30;40.00;;;;;;5030505;28;20407;-71
2024/02/16 11:14:40;;;;;;;15.27;4.90;;;16.30;40.30;;;;;;5030253;28;20379;-72
2024/02/16 11:17:12;;;;;;;10.80;4.43;;;16.30;40.70;;;;;;5030614;28;20429;-71
2024/02/16 11:19:45;;;;;;;11.48;4.80;;;16.30;40.70;;;;;;5030891;28;20889;-73
2024/02/16 11:22:14;;;;;;;13.05;6.35;;;16.20;41.10;;;;;;5030502;28;20426;-73
2024/02/16 11:24:47;;;;;;;12.10;5.00;;;16.20;41.40;;;;;;5033998;28;20485;-73
2024/02/16 11:27:21;;;;;;;11.07;5.05;;;16.20;41.50;;;;;;5034361;28;20391;-73
2024/02/16 11:29:46;;;;;;;11.82;4.90;;;16.20;42.10;;;;;;5034061;28;20383;-71
2024/02/16 11:32:12;;;;;;;11.20;4.70;;;16.20;41.70;;;;;;5035408;28;20885;-73
2024/02/16 11:34:38;;;;;;;6.75;4.13;;;16.30;41.80;;;;;;5034949;28;20383;-72
2024/02/16 11:37:07;;;;;;;13.18;4.40;;;16.30;41.90;;;;;;5035943;28;20387;-71
2024/02/16 11:39:37;;;;;;;14.90;5.28;;;16.20;42.10;;;;;;5035248;28;20498;-74
2024/02/16 11:42:11;;;;;;;15.25;5.20;;;16.10;42.80;;;;;;5035032;28;20380;-77
2024/02/16 11:44:39;;;;;;;10.00;5.47;;;16.10;43.30;;;;;;5034720;28;20776;-73
2024/02/16 11:47:10;;;;;;;14.90;4.32;;;16.00;43.50;;;;;;5034848;28;20751;-72
2024/02/16 11:49:36;;;;;;;13.20;4.88;;;16.10;43.70;;;;;;5035674;28;20383;-72
2024/02/16 11:52:04;;;;;;;13.00;4.50;;;16.10;44.10;;;;;;5034328;28;20797;-72
2024/02/16 11:54:31;;;;;;;12.95;5.07;;;16.20;43.80;;;;;;5034652;28;20383;-73
2024/02/16 11:56:57;;;;;;;14.52;5.13;;;16.20;44.00;;;;;;5034657;28;20379;-72
2024/02/16 11:59:23;;;;;;;16.85;5.20;;;16.10;44.40;;;;;;5034790;28;20383;-73
2024/02/16 12:01:56;;;;;;;10.77;4.65;;;16.10;44.90;;;;;;5034538;28;20383;-70
2024/02/16 12:04:29;;;;;;;11.07;5.03;;;16.00;45.00;;;;;;5034788;28;20480;-73
2024/02/16 12:07:00;;;;;;;15.20;5.30;;;16.00;45.50;;;;;;5034807;28;20410;-72
2024/02/16 12:09:26;;;;;;;9.60;5.03;;;16.10;45.20;;;;;;5034711;28;20383;-70
2024/02/16 12:11:53;;;;;;;9.38;4.90;;;16.10;45.40;;;;;;5034994;28;20885;-73
2024/02/16 12:14:21;;;;;;;17.40;5.38;;;16.10;45.70;;;;;;5034182;28;20438;-72
2024/02/16 12:17:07;;;;;;;12.07;5.22;;;16.00;46.00;;;;;;5033272;28;20462;-72
2024/02/16 12:19:32;;;;;;;12.02;5.00;;;16.10;46.10;;;;;;5034440;28;20751;-70
2024/02/16 12:21:58;;;;;;;9.00;5.00;;;16.10;46.30;;;;;;5033708;28;20394;-72
2024/02/16 12:24:24;;;;;;;10.27;5.00;;;16.10;46.50;;;;;;5033967;28;20387;-71
2024/02/16 12:26:51;;;;;;;13.73;5.30;;;16.10;46.80;;;;;;5034325;28;20379;-71
2024/02/16 12:29:17;;;;;;;14.40;5.07;;;16.10;46.80;;;;;;5034155;28;20383;-73
2024/02/16 12:31:44;;;;;;;14.93;5.38;;;16.10;46.80;;;;;;5034056;28;20398;-71
2024/02/16 12:34:10;;;;;;;16.88;5.88;;;16.00;47.10;;;;;;5033515;28;20410;-71
2024/02/16 12:36:38;;;;;;;12.32;5.53;;;16.00;47.30;;;;;;5032879;28;20382;-73
2024/02/16 12:39:04;;;;;;;12.85;5.60;;;15.90;47.90;;;;;;5032465;28;20383;-74